Terminal Aerodrome Forecast
Issued by NWS

Home | Current Version | Previous Version | Text Only | Print | Product List | Glossary On
Versions: 1 2 3 4 5 6 7 8 9 10 11 12
000
FTAK31 PAJN 251700
TAFAYA
TAF
PAYA 251720Z 2518/2618 09006KT P6SM SCT070 SCT120
     FM260500 08010KT P6SM BKN100
      AMD LTD TO CLD VIS AND WIND 2601/2610=

USA.gov is the U.S. government's official web portal to all federal, state and local government web resources and services.